createdAt,value
2018-03-16T00:02:09.782Z,93632.31
2018-03-16T00:04:43.060Z,93631.61
2018-03-16T00:07:16.365Z,93630.52
2018-03-16T00:09:49.643Z,93637.20
2018-03-16T00:12:22.956Z,93640.99
2018-03-16T00:14:56.244Z,93648.97
2018-03-16T01:48:27.499Z,93713.52
2018-03-16T01:51:00.786Z,93707.82
2018-03-16T01:53:34.082Z,93701.21
2018-03-16T01:56:08.159Z,93706.50
2018-03-16T01:58:41.440Z,93706.20
2018-03-16T03:32:20.176Z,93714.95
2018-03-16T03:34:53.458Z,93714.66
2018-03-16T03:37:26.771Z,93712.52
2018-03-16T03:40:00.061Z,93713.41
2018-03-16T03:42:33.364Z,93716.38
2018-03-16T03:45:06.664Z,93717.11
2018-03-16T04:46:11.885Z,93730.64
2018-03-16T04:48:45.164Z,93734.50
2018-03-16T04:51:18.501Z,93728.70
2018-03-16T04:53:51.789Z,93732.26
2018-03-16T04:56:25.107Z,93733.07
2018-03-16T04:58:58.398Z,93732.77
2018-03-16T05:31:00.559Z,93746.95
2018-03-16T05:33:33.839Z,93753.66
2018-03-16T05:36:07.156Z,93758.14
2018-03-16T05:38:40.436Z,93756.41
2018-03-16T05:41:13.739Z,93762.62
2018-03-16T05:43:47.015Z,93764.75
2018-03-16T05:46:20.324Z,93756.82
2018-03-16T05:48:53.634Z,93755.39
2018-03-16T05:51:26.939Z,93758.44
2018-03-16T05:54:00.243Z,93758.84
2018-03-16T05:56:33.530Z,93767.29
2018-03-16T05:59:06.832Z,93769.23
2018-03-16T06:01:40.143Z,93766.09
2018-03-16T06:04:14.204Z,93775.02
2018-03-16T06:06:47.520Z,93767.92
2018-03-16T06:09:20.806Z,93777.18
2018-03-16T06:11:54.117Z,93774.43
2018-03-16T06:14:27.395Z,93781.95
2018-03-16T06:17:00.727Z,93782.66
2018-03-16T06:19:34.799Z,93786.82
2018-03-16T06:22:08.106Z,93787.02
2018-03-16T06:24:41.415Z,93790.17
2018-03-16T06:27:15.616Z,93786.09
2018-03-16T06:29:48.930Z,93781.52
2018-03-16T06:32:23.043Z,93787.50
2018-03-16T06:34:56.399Z,93795.73
2018-03-16T06:37:29.684Z,93794.02
2018-03-16T06:40:02.987Z,93791.47
2018-03-16T06:42:36.259Z,93793.71
2018-03-16T06:45:09.564Z,93799.41
2018-03-16T06:47:42.875Z,93805.91
2018-03-16T06:50:16.186Z,93805.40
2018-03-16T06:52:49.467Z,93813.73
2018-03-16T06:55:22.775Z,93814.58
2018-03-16T06:57:56.076Z,93817.42
2018-03-16T07:00:29.382Z,93819.45
2018-03-16T07:03:03.467Z,93815.86
2018-03-16T07:05:36.782Z,93823.89
2018-03-16T07:08:10.058Z,93829.80
2018-03-16T07:10:43.367Z,93822.98
2018-03-16T07:13:16.643Z,93826.73
2018-03-16T07:15:49.939Z,93832.11
2018-03-16T07:18:23.224Z,93834.14
2018-03-16T07:20:56.520Z,93840.34
2018-03-16T07:23:29.803Z,93839.13
2018-03-16T07:26:03.104Z,93846.77
2018-03-16T07:28:36.408Z,93843.51
2018-03-16T08:00:54.648Z,93853.00
2018-03-16T08:03:27.959Z,93860.73
2018-03-16T08:06:01.252Z,93856.85
2018-03-16T08:08:34.563Z,93859.67
2018-03-16T08:11:07.844Z,93849.49
2018-03-16T08:13:41.150Z,93855.36
2018-03-16T09:01:46.850Z,93856.88
2018-03-16T09:04:20.126Z,93855.73
2018-03-16T09:06:53.470Z,93853.53
2018-03-16T09:09:26.795Z,93865.02
2018-03-16T09:12:00.116Z,93855.08
2018-03-16T09:14:33.411Z,93854.74
2018-03-16T10:02:39.323Z,93851.75
2018-03-16T10:05:12.606Z,93849.68
2018-03-16T10:07:45.915Z,93857.48
2018-03-16T10:10:19.250Z,93845.55
2018-03-16T10:12:52.538Z,93848.60
2018-03-16T11:00:59.267Z,93890.39
2018-03-16T11:03:51.074Z,93893.05
2018-03-16T11:06:29.992Z,93893.78
2018-03-16T11:09:03.287Z,93885.55
2018-03-16T11:11:36.603Z,93879.91
2018-03-16T11:14:09.883Z,93881.02
2018-03-16T12:02:14.536Z,93867.84
2018-03-16T12:04:48.606Z,93865.94
2018-03-16T12:07:21.891Z,93866.56
2018-03-16T12:09:55.212Z,93871.11
2018-03-16T12:12:28.498Z,93854.81
2018-03-16T12:15:01.817Z,93867.06
2018-03-16T13:03:08.076Z,93869.81
2018-03-16T13:05:42.148Z,93854.19
2018-03-16T13:08:15.461Z,93849.19
2018-03-16T13:10:48.750Z,93845.31
2018-03-16T13:13:22.062Z,93859.02
2018-03-16T14:01:27.395Z,93827.38
2018-03-16T14:04:00.706Z,93830.59
2018-03-16T14:06:33.999Z,93823.55
2018-03-16T14:09:07.316Z,93834.80
2018-03-16T14:11:40.608Z,93820.73
2018-03-16T14:14:13.922Z,93826.25
2018-03-16T15:02:19.800Z,93837.88
2018-03-16T15:04:53.185Z,93858.33
2018-03-16T15:07:26.492Z,93840.14
2018-03-16T15:10:00.563Z,93850.08
2018-03-16T15:12:33.896Z,93853.96
2018-03-16T15:15:07.194Z,93853.67
2018-03-16T15:46:57.834Z,93825.61
2018-03-16T15:49:31.857Z,93829.16
2018-03-16T15:52:05.118Z,93831.25
2018-03-16T15:54:39.168Z,93827.23
2018-03-16T15:57:12.437Z,93824.09
2018-03-16T15:59:45.729Z,93817.00
2018-03-16T16:02:19.746Z,93819.30
2018-03-16T16:04:53.787Z,93813.84
2018-03-16T16:07:27.033Z,93813.67
2018-03-16T16:10:00.309Z,93811.39
2018-03-16T16:12:33.574Z,93807.61
2018-03-16T16:15:06.903Z,93804.54
2018-03-16T16:17:40.129Z,93804.96
2018-03-16T16:20:14.153Z,93805.84
2018-03-16T16:22:47.438Z,93810.59
2018-03-16T16:25:21.462Z,93804.02
2018-03-16T16:27:54.729Z,93806.11
2018-03-16T16:30:28.754Z,93795.25
2018-03-16T16:33:02.026Z,93808.58
2018-03-16T16:35:35.274Z,93799.19
2018-03-16T16:38:08.553Z,93810.84
2018-03-16T16:40:41.811Z,93810.67
2018-03-16T16:43:15.082Z,93816.50
2018-03-16T16:45:48.344Z,93820.08
2018-03-16T16:48:21.597Z,93825.72
2018-03-16T16:50:55.641Z,93845.97
2018-03-16T16:53:28.898Z,93831.56
2018-03-16T16:56:02.168Z,93835.24
2018-03-16T16:58:35.441Z,93833.16
2018-03-16T17:01:08.842Z,93850.14
2018-03-16T17:03:42.143Z,93843.70
2018-03-16T17:06:15.391Z,93848.95
2018-03-16T17:08:49.429Z,93860.53
2018-03-16T17:11:22.682Z,93853.48
2018-03-16T17:13:55.962Z,93864.22
2018-03-16T17:16:29.209Z,93860.45
2018-03-16T17:19:02.493Z,93851.41
2018-03-16T17:21:35.738Z,93856.88
2018-03-16T17:24:09.017Z,93865.94
2018-03-16T17:26:42.267Z,93872.02
2018-03-16T17:29:16.301Z,93875.78
2018-03-16T17:31:50.220Z,93879.73
2018-03-16T17:34:23.595Z,93884.70
2018-03-16T17:36:56.839Z,93887.63
2018-03-16T17:39:30.109Z,93894.22
2018-03-16T17:42:03.362Z,93901.14
2018-03-16T17:44:36.633Z,93902.58
2018-03-16T17:47:12.273Z,93905.41
2018-03-16T17:49:47.710Z,93909.88
2018-03-16T17:52:23.119Z,93907.22
2018-03-16T17:55:00.474Z,93908.22
2018-03-16T17:57:36.553Z,93907.81
2018-03-16T18:00:11.679Z,93904.95
2018-03-16T18:02:47.548Z,93909.03
2018-03-16T18:05:23.029Z,93908.52
2018-03-16T18:08:02.101Z,93913.01
2018-03-16T18:10:38.201Z,93913.93
2018-03-16T18:13:13.098Z,93914.04
2018-03-16T18:15:52.052Z,93917.20
2018-03-16T18:18:28.921Z,93919.12
2018-03-16T18:21:07.694Z,93919.23
2018-03-16T18:23:42.129Z,93915.66
2018-03-16T18:26:17.819Z,93916.58
2018-03-16T18:28:52.432Z,93918.82
2018-03-16T18:31:27.887Z,93920.77
2018-03-16T18:34:04.987Z,93919.45
2018-03-16T18:36:39.663Z,93916.80
2018-03-16T18:39:13.286Z,93920.25
2018-03-16T18:41:46.721Z,93925.96
2018-03-16T18:44:20.558Z,93922.39
2018-03-16T18:46:54.210Z,93928.42
2018-03-16T18:49:27.871Z,93920.98
2018-03-16T18:52:01.940Z,93919.88
2018-03-16T18:54:35.343Z,93917.45
2018-03-16T18:57:08.613Z,93914.50
2018-03-16T18:59:41.902Z,93911.63
2018-03-16T19:02:15.182Z,93917.44
2018-03-16T19:04:48.461Z,93912.88
2018-03-16T19:07:22.535Z,93908.39
2018-03-16T19:09:55.906Z,93902.98
2018-03-16T19:12:29.209Z,93903.49
2018-03-16T19:15:02.554Z,93909.60
2018-03-16T19:17:35.863Z,93904.92
2018-03-16T19:20:10.067Z,93911.84
2018-03-16T19:22:43.339Z,93908.91
2018-03-16T19:25:16.883Z,93910.30
2018-03-16T19:27:50.285Z,93900.44
2018-03-16T19:30:24.924Z,93898.52
2018-03-16T19:32:58.212Z,93904.73
2018-03-16T19:35:31.707Z,93909.22
2018-03-16T19:38:05.881Z,93905.06
2018-03-16T19:40:40.161Z,93904.77
2018-03-16T19:43:13.495Z,93899.17
2018-03-16T19:45:47.683Z,93899.68
2018-03-16T19:48:21.632Z,93893.76
2018-03-16T19:50:54.967Z,93885.52
2018-03-16T19:53:28.441Z,93879.52
2018-03-16T19:56:01.860Z,93878.08
2018-03-16T19:58:35.434Z,93877.38
2018-03-16T20:01:08.949Z,93879.73
2018-03-16T20:03:42.433Z,93869.13
2018-03-16T20:06:16.784Z,93867.70
2018-03-16T20:08:50.216Z,93863.32
2018-03-16T20:11:24.433Z,93865.05
2018-03-16T20:13:59.610Z,93859.86
2018-03-16T20:16:33.400Z,93861.80
2018-03-16T20:19:07.517Z,93860.08
2018-03-16T20:21:40.848Z,93858.97
2018-03-16T20:24:14.426Z,93848.38
2018-03-16T20:26:48.535Z,93843.19
2018-03-16T20:29:22.930Z,93836.34
2018-03-16T20:31:56.240Z,93838.70
2018-03-16T20:34:30.397Z,93828.72
2018-03-16T20:37:03.701Z,93827.10
2018-03-16T20:39:36.981Z,93821.73
2018-03-16T20:42:10.284Z,93820.84
2018-03-16T20:44:43.539Z,93827.05
2018-03-16T20:47:17.589Z,93825.73
2018-03-16T20:49:50.845Z,93827.13
2018-03-16T20:52:24.882Z,93832.53
2018-03-16T20:54:58.376Z,93837.53
2018-03-16T20:57:31.621Z,93847.23
2018-03-16T21:00:04.925Z,93863.38
2018-03-16T21:02:38.173Z,93869.09
2018-03-16T21:05:11.460Z,93870.54
2018-03-16T21:07:44.700Z,93876.88
2018-03-16T21:10:18.001Z,93876.81
2018-03-16T21:12:51.243Z,93882.93
2018-03-16T21:15:24.519Z,93883.84
2018-03-16T21:17:57.763Z,93887.93
2018-03-16T21:20:31.049Z,93885.58
2018-03-16T21:23:04.290Z,93893.41
2018-03-16T21:25:38.382Z,93893.62
2018-03-16T21:28:11.669Z,93895.16
2018-03-16T21:30:44.901Z,93895.97
2018-03-16T21:33:18.196Z,93891.19
2018-03-16T21:35:52.202Z,93880.90
2018-03-16T21:38:25.503Z,93867.05
2018-03-16T21:40:58.751Z,93866.94
2018-03-16T21:43:32.023Z,93868.16
2018-03-16T21:46:05.282Z,93861.25
2018-03-16T21:48:38.545Z,93862.67
2018-03-16T21:51:11.843Z,93868.07
2018-03-16T21:53:45.120Z,93861.27
2018-03-16T21:56:18.389Z,93862.80
2018-03-16T21:58:51.789Z,93865.55
2018-03-16T22:01:25.074Z,93869.31
2018-03-16T22:03:58.306Z,93862.12
2018-03-16T22:06:31.582Z,93864.56
2018-03-16T22:11:37.388Z,93858.19
2018-03-16T22:14:10.665Z,93851.38
2018-03-16T22:16:43.941Z,93857.49
2018-03-16T22:19:17.187Z,93855.13
2018-03-16T22:21:50.456Z,93851.48
2018-03-16T22:24:24.509Z,93854.74
2018-03-16T22:26:57.754Z,93844.78
2018-03-16T22:29:31.022Z,93843.77
2018-03-16T22:32:04.309Z,93846.20
2018-03-16T22:34:37.582Z,93848.33
2018-03-16T22:37:10.850Z,93842.94
2018-03-16T22:39:44.867Z,93846.91
2018-03-16T22:42:18.899Z,93847.63
2018-03-16T22:44:52.166Z,93845.88
2018-03-16T22:47:26.184Z,93839.59
2018-03-16T22:50:00.249Z,93838.58
2018-03-16T22:52:33.497Z,93848.23
2018-03-16T22:55:06.786Z,93843.76
2018-03-16T22:57:40.040Z,93836.44
2018-03-16T23:00:13.307Z,93835.63
2018-03-16T23:02:46.585Z,93829.71
2018-03-16T23:05:20.209Z,93824.14
2018-03-16T23:07:53.454Z,93824.75
2018-03-16T23:10:27.499Z,93816.93
2018-03-16T23:13:00.773Z,93810.53
2018-03-16T23:15:34.813Z,93812.47
2018-03-16T23:18:08.090Z,93808.38
2018-03-16T23:20:41.349Z,93810.32
2018-03-16T23:23:14.630Z,93805.25
2018-03-16T23:25:47.878Z,93811.26
2018-03-16T23:28:21.158Z,93802.61
2018-03-16T23:30:54.403Z,93801.49
2018-03-16T23:33:27.677Z,93799.98
2018-03-16T23:36:00.929Z,93797.55
2018-03-16T23:38:34.203Z,93801.62
2018-03-16T23:41:07.446Z,93793.28
2018-03-16T23:43:40.718Z,93791.36
2018-03-16T23:46:13.993Z,93792.59
2018-03-16T23:48:48.054Z,93787.61
2018-03-16T23:51:21.295Z,93791.38
2018-03-16T23:53:55.333Z,93792.17
2018-03-16T23:56:28.590Z,93781.70
2018-03-16T23:59:01.866Z,93772.06
